Time;durP1;ratioP1;P1;durP2;ratioP2;P2;SDS_P1;SDS_P2;PMS_P1;PMS_P2;Temp;Humidity;BMP_temperature;BMP_pressure;BME280_temperature;BME280_humidity;BME280_pressure;Samples;Min_cycle;Max_cycle;Signal;HPM_P1;HPM_P2
2022/01/16 00:00:19;;;;;;;26.40;19.65;;;5.30;93.50;;;;;;5033024;28;20040;-44
2022/01/16 00:05:25;;;;;;;21.77;17.92;;;5.30;93.40;;;;;;5033256;28;20037;-51
2022/01/16 00:07:52;;;;;;;23.73;19.10;;;5.30;93.30;;;;;;5033131;28;20041;-43
2022/01/16 00:10:19;;;;;;;24.05;19.40;;;5.30;93.30;;;;;;5026756;28;20112;-47
2022/01/16 00:12:48;;;;;;;23.98;18.95;;;5.30;93.30;;;;;;5028514;28;20045;-47
2022/01/16 00:15:15;;;;;;;26.92;21.70;;;5.20;93.30;;;;;;5026580;28;20049;-46
2022/01/16 00:17:53;;;;;;;24.30;20.08;;;5.20;93.60;;;;;;5032657;28;20095;-50
2022/01/16 00:20:20;;;;;;;27.17;21.30;;;5.20;93.60;;;;;;5033090;28;20073;-44
2022/01/16 00:22:48;;;;;;;24.40;19.60;;;5.20;93.80;;;;;;5032376;28;20037;-46
2022/01/16 00:25:16;;;;;;;27.58;19.33;;;5.20;93.80;;;;;;5036392;28;20077;-48
2022/01/16 00:27:42;;;;;;;24.10;20.00;;;5.20;94.00;;;;;;5031364;28;20033;-48
2022/01/16 00:30:09;;;;;;;24.77;20.58;;;5.20;94.00;;;;;;5031399;28;20045;-50
2022/01/16 00:32:36;;;;;;;26.05;19.33;;;5.20;94.00;;;;;;5032668;28;20048;-48
2022/01/16 00:35:03;;;;;;;22.90;19.10;;;5.20;94.10;;;;;;5032655;28;20049;-48
2022/01/16 00:37:29;;;;;;;24.58;18.50;;;5.30;94.00;;;;;;5032559;28;20052;-45
2022/01/16 00:39:56;;;;;;;25.30;19.05;;;5.40;93.80;;;;;;5032689;28;20485;-49
2022/01/16 00:42:23;;;;;;;23.17;19.15;;;5.40;93.60;;;;;;5032554;28;20504;-47
2022/01/16 00:44:50;;;;;;;23.15;18.30;;;5.50;93.50;;;;;;5032556;28;20116;-48
2022/01/16 00:47:17;;;;;;;22.45;18.67;;;5.50;93.50;;;;;;5031299;28;20041;-45
2022/01/16 00:49:44;;;;;;;22.30;18.42;;;5.40;93.50;;;;;;5032524;28;20048;-50
2022/01/16 00:52:11;;;;;;;21.83;17.15;;;5.40;93.60;;;;;;5032652;28;20046;-46
2022/01/16 00:54:38;;;;;;;19.67;16.65;;;5.40;93.70;;;;;;5033916;28;20042;-48
2022/01/16 00:57:04;;;;;;;23.10;18.65;;;5.40;93.80;;;;;;5032596;28;20041;-48
2022/01/16 00:59:31;;;;;;;23.77;18.30;;;5.40;93.90;;;;;;5032501;28;20481;-48
2022/01/16 01:02:00;;;;;;;22.70;17.85;;;5.40;93.90;;;;;;5032400;28;20503;-46
2022/01/16 01:04:27;;;;;;;23.45;18.88;;;5.40;93.80;;;;;;5032297;28;20049;-46
2022/01/16 01:06:55;;;;;;;23.52;18.50;;;5.40;93.80;;;;;;5033083;28;20124;-47
2022/01/16 01:09:22;;;;;;;23.60;18.45;;;5.50;93.80;;;;;;5033412;28;20050;-51
2022/01/16 01:11:50;;;;;;;22.80;18.95;;;5.50;93.80;;;;;;5031833;28;20045;-46
2022/01/16 01:14:38;;;;;;;23.50;19.55;;;5.50;93.90;;;;;;5032745;28;20049;-51
2022/01/16 01:17:07;;;;;;;22.70;18.38;;;5.50;94.00;;;;;;5031067;28;20144;-45
2022/01/16 01:19:35;;;;;;;24.65;18.45;;;5.50;94.00;;;;;;5032307;28;20037;-46
2022/01/16 01:22:04;;;;;;;23.35;18.55;;;5.50;94.10;;;;;;5032350;28;20044;-47
2022/01/16 01:24:33;;;;;;;26.70;19.30;;;5.50;94.20;;;;;;5036676;28;20096;-49
2022/01/16 01:27:17;;;;;;;25.50;19.02;;;5.50;94.30;;;;;;5032286;28;20041;-46
2022/01/16 01:29:51;;;;;;;24.20;19.45;;;5.50;94.50;;;;;;5035981;28;20041;-47
2022/01/16 01:32:18;;;;;;;24.10;18.23;;;5.50;94.70;;;;;;5030618;28;20095;-48
2022/01/16 01:34:45;;;;;;;26.17;18.55;;;5.40;94.80;;;;;;5034573;28;20050;-46
2022/01/16 01:37:12;;;;;;;26.70;19.30;;;5.40;95.00;;;;;;5036208;28;20076;-49
2022/01/16 01:39:39;;;;;;;24.48;18.35;;;5.40;95.40;;;;;;5034748;28;20041;-48
2022/01/16 01:42:10;;;;;;;28.25;18.73;;;5.40;95.50;;;;;;5035572;28;20450;-50
2022/01/16 01:52:58;;;;;;;24.67;18.67;;;5.30;95.80;;;;;;5034257;28;20048;-50
2022/01/16 01:55:25;;;;;;;21.80;17.42;;;5.40;95.90;;;;;;5035426;28;20046;-47
2022/01/16 01:57:52;;;;;;;24.23;17.70;;;5.40;95.90;;;;;;5035125;28;20045;-51
2022/01/16 02:00:18;;;;;;;23.95;16.77;;;5.40;95.90;;;;;;5033885;28;20404;-49
2022/01/16 02:05:30;;;;;;;26.00;17.60;;;5.60;95.90;;;;;;5035213;28;20095;-49
2022/01/16 02:07:57;;;;;;;23.58;17.38;;;5.60;95.80;;;;;;5034891;28;20064;-45
2022/01/16 02:10:24;;;;;;;23.08;17.95;;;5.60;95.80;;;;;;5033719;28;20121;-44
2022/01/16 02:12:57;;;;;;;24.15;17.70;;;5.70;95.90;;;;;;5035038;28;20104;-46
2022/01/16 02:32:00;;;;;;;24.63;17.60;;;5.90;96.20;;;;;;5034601;28;20050;-50
2022/01/16 02:37:03;;;;;;;26.48;18.52;;;5.90;96.30;;;;;;5034795;28;20132;-47
2022/01/16 02:39:30;;;;;;;26.33;19.27;;;5.90;96.30;;;;;;5034289;28;20052;-51
2022/01/16 02:41:59;;;;;;;26.10;18.67;;;5.90;96.50;;;;;;5034423;28;20037;-47
2022/01/16 02:44:34;;;;;;;24.58;17.92;;;6.00;96.70;;;;;;5034413;28;20052;-49
2022/01/16 02:47:01;;;;;;;22.67;18.30;;;6.00;96.60;;;;;;5034525;28;20087;-46
2022/01/16 02:49:28;;;;;;;34.08;19.15;;;6.00;96.90;;;;;;5034404;28;20037;-45
2022/01/16 02:51:54;;;;;;;26.33;18.38;;;6.00;96.90;;;;;;5034154;28;20038;-44
2022/01/16 02:54:21;;;;;;;33.20;19.42;;;6.10;97.00;;;;;;5034239;28;20049;-45
2022/01/16 02:56:48;;;;;;;29.67;19.10;;;6.10;97.10;;;;;;5034141;28;20045;-46
2022/01/16 02:59:15;;;;;;;27.60;19.48;;;6.10;97.00;;;;;;5034161;28;20041;-47
2022/01/16 03:01:42;;;;;;;24.20;19.45;;;6.20;97.00;;;;;;5033944;28;20096;-46
2022/01/16 03:04:09;;;;;;;28.65;19.42;;;6.20;97.10;;;;;;5033800;28;20049;-47
2022/01/16 03:06:35;;;;;;;28.35;20.00;;;6.20;97.20;;;;;;5033857;28;20038;-49
2022/01/16 03:09:05;;;;;;;33.92;19.83;;;6.20;97.10;;;;;;5037520;28;20038;-46
2022/01/16 03:11:36;;;;;;;33.13;20.48;;;6.30;97.20;;;;;;5033866;28;20522;-48
2022/01/16 03:14:03;;;;;;;32.58;21.80;;;6.30;97.20;;;;;;5033895;28;20096;-47
2022/01/16 03:16:29;;;;;;;32.35;21.58;;;6.30;97.10;;;;;;5033754;28;20042;-45
2022/01/16 03:21:54;;;;;;;32.72;20.88;;;6.30;96.80;;;;;;5033591;28;20048;-47
2022/01/16 03:24:21;;;;;;;33.05;20.90;;;6.30;97.00;;;;;;5027324;28;20501;-48
2022/01/16 03:26:48;;;;;;;33.60;21.27;;;6.30;97.10;;;;;;5037631;28;20060;-47
2022/01/16 03:29:14;;;;;;;34.92;20.52;;;6.30;97.00;;;;;;5033468;28;20116;-45
2022/01/16 03:31:41;;;;;;;30.95;20.35;;;6.40;97.20;;;;;;5033701;28;20037;-50
2022/01/16 03:34:08;;;;;;;33.63;21.85;;;6.40;97.10;;;;;;5033544;28;20469;-46
2022/01/16 03:36:35;;;;;;;30.27;21.15;;;6.40;97.20;;;;;;5033385;28;20045;-46
2022/01/16 03:39:02;;;;;;;35.88;23.23;;;6.40;97.10;;;;;;5033328;28;20132;-46
2022/01/16 03:41:30;;;;;;;33.10;21.23;;;6.40;97.00;;;;;;5033364;28;20038;-47
2022/01/16 03:43:58;;;;;;;33.85;21.17;;;6.40;97.00;;;;;;5033281;28;20346;-45
2022/01/16 03:46:29;;;;;;;30.65;22.00;;;6.30;97.10;;;;;;5033089;28;20556;-52
2022/01/16 03:48:56;;;;;;;32.03;22.35;;;6.40;97.10;;;;;;5033429;28;20044;-45
2022/01/16 03:51:23;;;;;;;32.25;21.55;;;6.40;97.20;;;;;;5026297;28;20033;-48
2022/01/16 03:53:50;;;;;;;28.77;19.98;;;6.40;97.00;;;;;;5032098;28;20185;-46
2022/01/16 03:56:17;;;;;;;34.08;21.25;;;6.30;96.90;;;;;;5027032;28;20042;-46
2022/01/16 03:58:43;;;;;;;29.45;21.42;;;6.30;96.90;;;;;;5033130;28;20124;-52
2022/01/16 04:01:10;;;;;;;30.90;21.30;;;6.30;96.90;;;;;;5033083;28;20560;-48
2022/01/16 04:03:37;;;;;;;29.08;19.52;;;6.30;96.90;;;;;;5032723;28;20045;-48
2022/01/16 04:06:04;;;;;;;28.73;21.20;;;6.30;96.80;;;;;;5032909;28;20041;-48
2022/01/16 04:08:31;;;;;;;31.55;22.30;;;6.30;97.20;;;;;;5032956;28;20033;-46
2022/01/16 04:10:59;;;;;;;37.85;21.50;;;6.30;97.40;;;;;;5032967;28;20048;-44
2022/01/16 04:13:26;;;;;;;32.30;22.00;;;6.30;97.20;;;;;;5032955;28;20049;-46
2022/01/16 04:15:52;;;;;;;28.85;21.40;;;6.30;97.20;;;;;;5032878;28;20049;-47
2022/01/16 04:18:19;;;;;;;30.45;20.02;;;6.40;97.20;;;;;;5032785;28;20404;-45
2022/01/16 04:20:46;;;;;;;27.50;19.90;;;6.40;97.10;;;;;;5032872;28;20044;-45
2022/01/16 04:23:13;;;;;;;30.58;20.75;;;6.40;97.10;;;;;;5032822;28;20128;-50
2022/01/16 04:25:40;;;;;;;27.85;19.95;;;6.40;97.00;;;;;;5034623;28;20103;-47
2022/01/16 04:28:07;;;;;;;26.23;20.42;;;6.40;96.90;;;;;;5033361;28;20037;-46
2022/01/16 04:30:33;;;;;;;30.65;19.65;;;6.40;96.90;;;;;;5032882;28;20038;-46
2022/01/16 04:33:00;;;;;;;26.30;19.48;;;6.40;96.80;;;;;;5032754;28;20049;-46
2022/01/16 04:35:27;;;;;;;25.20;18.80;;;6.30;96.90;;;;;;5015111;28;20042;-47
2022/01/16 04:37:54;;;;;;;32.17;19.70;;;6.20;96.90;;;;;;5032670;28;20136;-50
2022/01/16 04:40:40;;;;;;;28.38;20.08;;;6.20;96.90;;;;;;5033135;28;20495;-44
2022/01/16 04:45:52;;;;;;;25.65;18.95;;;6.00;97.10;;;;;;5032677;28;20397;-49
2022/01/16 04:48:19;;;;;;;25.73;18.75;;;6.00;97.20;;;;;;5032592;28;20048;-45
2022/01/16 04:50:46;;;;;;;28.55;17.13;;;5.90;97.10;;;;;;5032509;28;20120;-49
2022/01/16 04:53:13;;;;;;;28.83;17.25;;;5.90;97.20;;;;;;5031347;28;20563;-46
2022/01/16 04:55:40;;;;;;;26.92;16.88;;;5.80;97.20;;;;;;5034497;28;20129;-49
2022/01/16 04:58:06;;;;;;;29.55;16.77;;;5.80;97.30;;;;;;5018004;28;20455;-49
2022/01/16 05:00:33;;;;;;;24.05;15.40;;;5.80;97.30;;;;;;5031372;28;20044;-47
2022/01/16 05:03:00;;;;;;;20.48;14.38;;;5.70;97.30;;;;;;5033975;28;20044;-45
2022/01/16 05:05:27;;;;;;;20.73;14.55;;;5.70;97.40;;;;;;5036272;28;20048;-48
2022/01/16 05:07:54;;;;;;;20.58;13.45;;;5.70;97.80;;;;;;5036270;28;20057;-48
2022/01/16 05:10:20;;;;;;;22.50;14.13;;;5.70;97.90;;;;;;5036358;28;20484;-45
2022/01/16 05:12:50;;;;;;;19.67;15.07;;;5.70;98.00;;;;;;5036194;28;20045;-48
2022/01/16 05:18:08;;;;;;;22.30;15.35;;;5.70;98.20;;;;;;5036420;28;20178;-48
2022/01/16 05:20:35;;;;;;;22.40;14.63;;;5.70;98.00;;;;;;5036762;28;20048;-43
2022/01/16 05:23:01;;;;;;;25.63;15.95;;;5.70;98.20;;;;;;5038141;28;20035;-46
2022/01/16 05:25:28;;;;;;;22.20;15.48;;;5.80;98.50;;;;;;5036215;28;20045;-48
2022/01/16 05:27:55;;;;;;;22.75;16.58;;;5.80;98.50;;;;;;5035873;28;20057;-47
2022/01/16 05:30:22;;;;;;;21.75;15.90;;;5.90;98.60;;;;;;5035872;28;20060;-48
2022/01/16 05:32:48;;;;;;;20.92;15.98;;;5.90;98.50;;;;;;5035720;28;20049;-47
2022/01/16 05:35:15;;;;;;;23.02;16.05;;;5.90;98.30;;;;;;5035751;28;20119;-47
2022/01/16 05:37:42;;;;;;;21.63;15.77;;;5.90;98.50;;;;;;5035572;28;20043;-45
2022/01/16 05:40:09;;;;;;;24.38;16.55;;;5.90;98.50;;;;;;5035611;28;20056;-45
2022/01/16 05:42:36;;;;;;;23.38;16.58;;;6.00;98.80;;;;;;5035764;28;20047;-53
2022/01/16 05:45:02;;;;;;;25.70;16.70;;;6.10;98.70;;;;;;5036140;28;20056;-50
2022/01/16 05:47:29;;;;;;;24.05;17.05;;;6.20;98.70;;;;;;5035551;28;20038;-45
2022/01/16 05:49:56;;;;;;;20.30;15.55;;;6.20;98.60;;;;;;5035493;28;20100;-47
2022/01/16 05:52:42;;;;;;;;;;;6.30;98.60;;;;;;5035557;28;20037;-47
2022/01/16 05:55:09;;;;;;;20.73;14.32;;;6.40;98.60;;;;;;5040786;28;20404;-51
2022/01/16 05:57:36;;;;;;;18.38;14.18;;;6.40;98.40;;;;;;5035273;28;20073;-45
2022/01/16 06:00:02;;;;;;;20.05;14.80;;;6.50;98.40;;;;;;5033999;28;20041;-46
2022/01/16 06:02:30;;;;;;;20.40;14.60;;;6.50;98.20;;;;;;5035106;28;20053;-50
2022/01/16 06:04:56;;;;;;;23.13;16.13;;;6.50;98.10;;;;;;5035069;28;20119;-48
2022/01/16 06:07:23;;;;;;;20.38;15.20;;;6.60;98.10;;;;;;5035063;28;20128;-46
2022/01/16 06:09:52;;;;;;;22.25;15.30;;;6.60;98.10;;;;;;5035060;28;20033;-48
2022/01/16 06:12:19;;;;;;;22.27;15.80;;;6.60;98.00;;;;;;5035369;28;20429;-45
2022/01/16 06:14:45;;;;;;;19.05;15.23;;;6.70;98.00;;;;;;5034497;28;20041;-45
2022/01/16 06:17:13;;;;;;;23.02;15.82;;;6.70;97.90;;;;;;5033700;28;20049;-48
2022/01/16 06:19:39;;;;;;;23.40;16.25;;;6.70;97.90;;;;;;5034917;28;20045;-49
2022/01/16 06:22:06;;;;;;;23.30;15.48;;;6.70;97.80;;;;;;5034876;28;20061;-46
2022/01/16 06:24:33;;;;;;;23.02;15.43;;;6.80;97.80;;;;;;5036612;28;20038;-45
2022/01/16 06:27:00;;;;;;;19.67;14.70;;;6.80;97.70;;;;;;5034629;28;20116;-46
2022/01/16 06:29:27;;;;;;;22.67;15.35;;;6.80;97.70;;;;;;5034830;28;20038;-50
2022/01/16 06:31:53;;;;;;;18.92;14.43;;;6.80;97.80;;;;;;5034682;28;20505;-46
2022/01/16 06:34:20;;;;;;;19.20;13.98;;;6.80;97.70;;;;;;5034848;28;20045;-49
2022/01/16 06:36:47;;;;;;;22.02;15.40;;;6.90;97.60;;;;;;5028233;28;20063;-46
2022/01/16 06:39:14;;;;;;;22.83;16.63;;;6.90;97.60;;;;;;5028170;28;20046;-46
2022/01/16 06:41:40;;;;;;;17.50;14.93;;;6.90;97.60;;;;;;5028242;28;20049;-48
2022/01/16 06:44:13;;;;;;;19.40;14.55;;;6.90;97.50;;;;;;5028580;28;20041;-45
2022/01/16 06:46:40;;;;;;;19.98;14.90;;;6.90;97.60;;;;;;5034313;28;20072;-45
2022/01/16 06:49:07;;;;;;;18.65;14.27;;;6.90;97.50;;;;;;5034451;28;20116;-47
2022/01/16 06:51:33;;;;;;;19.35;13.55;;;6.90;97.60;;;;;;5034299;28;20045;-45
2022/01/16 06:54:02;;;;;;;21.23;13.82;;;6.90;97.60;;;;;;5038568;28;20128;-47
2022/01/16 06:56:29;;;;;;;18.80;14.43;;;6.90;97.50;;;;;;5034149;28;20042;-49
2022/01/16 06:58:56;;;;;;;18.42;13.80;;;7.00;97.80;;;;;;5034363;28;20412;-45
2022/01/16 07:01:43;;;;;;;19.25;13.82;;;7.00;97.50;;;;;;5033220;28;20053;-50
2022/01/16 07:04:10;;;;;;;16.13;12.40;;;7.00;97.40;;;;;;5033826;28;20115;-46
2022/01/16 07:06:37;;;;;;;17.23;11.98;;;7.00;97.30;;;;;;5034025;28;20050;-46
2022/01/16 07:09:03;;;;;;;14.25;11.05;;;7.00;97.40;;;;;;5034046;28;20473;-45
2022/01/16 07:11:30;;;;;;;16.50;11.32;;;7.00;97.30;;;;;;5034004;28;20056;-46
2022/01/16 07:13:57;;;;;;;14.30;11.35;;;7.00;97.20;;;;;;5034030;28;20497;-47
2022/01/16 07:16:24;;;;;;;16.77;11.00;;;7.00;97.20;;;;;;5032829;28;20041;-47
2022/01/16 07:18:51;;;;;;;14.90;11.30;;;7.00;97.30;;;;;;5033820;28;20431;-50
2022/01/16 07:21:17;;;;;;;15.50;11.43;;;7.00;97.20;;;;;;5033809;28;20049;-48
2022/01/16 07:23:45;;;;;;;16.67;10.90;;;7.00;97.20;;;;;;5033792;28;20047;-44
2022/01/16 07:26:12;;;;;;;14.82;11.15;;;7.00;97.30;;;;;;5032889;28;20041;-45
2022/01/16 07:28:39;;;;;;;14.65;11.73;;;7.00;97.30;;;;;;5033731;28;20469;-48
2022/01/16 07:31:05;;;;;;;14.57;11.35;;;7.00;97.40;;;;;;5033578;28;20047;-44
2022/01/16 07:33:32;;;;;;;16.45;11.40;;;7.00;97.40;;;;;;5032321;28;20448;-49
2022/01/16 07:35:59;;;;;;;16.02;11.88;;;7.00;97.30;;;;;;5033507;28;20042;-49
2022/01/16 07:38:26;;;;;;;16.13;11.48;;;7.00;97.30;;;;;;5033397;28;20045;-50
2022/01/16 07:40:53;;;;;;;17.02;12.52;;;7.00;97.30;;;;;;5033439;28;20463;-46
2022/01/16 07:43:19;;;;;;;16.95;11.32;;;7.00;97.30;;;;;;5033458;28;20041;-44
2022/01/16 07:45:47;;;;;;;14.85;11.30;;;7.00;97.30;;;;;;5033225;28;20115;-47
2022/01/16 07:48:13;;;;;;;14.60;11.50;;;7.00;97.30;;;;;;5033224;28;20041;-44
2022/01/16 07:50:40;;;;;;;18.52;12.10;;;7.00;97.30;;;;;;5033527;28;20485;-44
2022/01/16 07:53:07;;;;;;;17.20;11.88;;;7.00;97.40;;;;;;5035850;28;20412;-45
2022/01/16 07:55:34;;;;;;;21.08;13.00;;;6.90;97.40;;;;;;5033272;28;20041;-47
2022/01/16 07:58:01;;;;;;;16.58;11.73;;;6.90;97.50;;;;;;5033119;28;20051;-46
2022/01/16 08:00:29;;;;;;;15.13;12.32;;;6.90;97.40;;;;;;5033029;28;20432;-46
2022/01/16 08:02:57;;;;;;;15.52;11.38;;;7.00;97.40;;;;;;5033039;28;20473;-44
2022/01/16 08:05:25;;;;;;;15.35;11.63;;;6.90;97.40;;;;;;5031999;28;20069;-46
2022/01/16 08:07:52;;;;;;;17.02;12.20;;;6.90;97.50;;;;;;5033566;28;20045;-45
2022/01/16 08:10:19;;;;;;;16.52;12.57;;;7.00;97.50;;;;;;5033012;28;20042;-46
2022/01/16 08:12:45;;;;;;;16.52;11.90;;;7.00;97.40;;;;;;5032971;28;20045;-45
2022/01/16 08:15:12;;;;;;;17.25;11.57;;;7.00;97.40;;;;;;5032892;28;20128;-44
2022/01/16 08:17:39;;;;;;;16.13;12.02;;;6.90;97.50;;;;;;5032781;28;20045;-45
2022/01/16 08:20:06;;;;;;;18.33;12.75;;;7.00;97.60;;;;;;5032862;28;20076;-43
2022/01/16 08:22:33;;;;;;;19.65;12.95;;;7.00;97.60;;;;;;5033076;28;20037;-50
2022/01/16 08:24:59;;;;;;;15.52;12.00;;;7.00;97.50;;;;;;5037824;28;20493;-48
2022/01/16 08:27:26;;;;;;;17.80;13.18;;;7.00;97.60;;;;;;5032794;28;20369;-43
2022/01/16 08:29:53;;;;;;;20.77;11.68;;;7.00;97.50;;;;;;5032709;28;20041;-48
2022/01/16 08:32:20;;;;;;;19.95;12.07;;;7.10;97.50;;;;;;5032567;28;20045;-45
2022/01/16 08:34:47;;;;;;;14.88;11.50;;;7.10;97.50;;;;;;5038562;28;20211;-48
2022/01/16 08:37:14;;;;;;;18.77;11.75;;;7.10;97.50;;;;;;5034204;28;20050;-46
2022/01/16 08:39:41;;;;;;;16.95;12.50;;;7.10;97.50;;;;;;5036907;28;20455;-44
2022/01/16 08:42:08;;;;;;;15.95;12.52;;;7.10;97.50;;;;;;5036712;28;20045;-46
2022/01/16 08:44:36;;;;;;;17.23;12.07;;;7.10;97.50;;;;;;5036634;28;20132;-46
2022/01/16 08:47:03;;;;;;;18.60;11.80;;;7.20;97.40;;;;;;5035539;28;20091;-47
2022/01/16 08:49:30;;;;;;;19.20;12.68;;;7.20;97.30;;;;;;5036724;28;20132;-46
2022/01/16 08:51:58;;;;;;;19.90;12.25;;;7.20;97.30;;;;;;5035362;28;20045;-45
2022/01/16 08:54:24;;;;;;;16.42;12.15;;;7.20;97.30;;;;;;5036499;28;20560;-44
2022/01/16 08:56:51;;;;;;;16.60;11.20;;;7.20;97.20;;;;;;5036423;28;20046;-48
2022/01/16 08:59:18;;;;;;;20.25;13.55;;;7.30;97.10;;;;;;5036360;28;20049;-44
2022/01/16 09:01:45;;;;;;;18.67;13.73;;;7.30;97.00;;;;;;5036249;28;20041;-50
2022/01/16 09:04:12;;;;;;;17.70;13.55;;;7.30;97.10;;;;;;5037883;28;20493;-47
2022/01/16 09:06:39;;;;;;;18.75;14.75;;;7.30;97.00;;;;;;5035127;28;20060;-48
2022/01/16 09:09:11;;;;;;;20.02;14.57;;;7.30;97.00;;;;;;5036309;28;20034;-46
2022/01/16 09:11:38;;;;;;;19.05;13.07;;;7.30;97.10;;;;;;5036177;28;20042;-49
2022/01/16 09:14:04;;;;;;;17.88;13.70;;;7.30;97.00;;;;;;5036114;28;20045;-48
2022/01/16 09:16:33;;;;;;;19.00;13.55;;;7.40;97.10;;;;;;5034773;28;20041;-45
2022/01/16 09:19:00;;;;;;;19.42;13.35;;;7.40;97.00;;;;;;5035984;28;20408;-46
2022/01/16 09:21:27;;;;;;;20.95;13.90;;;7.50;97.20;;;;;;5035887;28;20420;-46
2022/01/16 09:23:53;;;;;;;17.20;13.40;;;7.50;96.80;;;;;;5035791;28;20137;-45
2022/01/16 09:26:20;;;;;;;19.48;14.13;;;7.60;96.80;;;;;;5035780;28;20033;-46
2022/01/16 09:28:47;;;;;;;20.80;13.85;;;7.60;96.90;;;;;;5035737;28;20496;-46
2022/01/16 09:31:14;;;;;;;19.17;13.65;;;7.60;96.90;;;;;;5035905;28;20052;-47
2022/01/16 09:33:41;;;;;;;18.23;13.13;;;7.60;96.80;;;;;;5040237;28;20120;-45
2022/01/16 09:36:09;;;;;;;22.60;14.05;;;7.70;96.80;;;;;;5035652;28;20037;-51
2022/01/16 09:38:36;;;;;;;19.35;15.05;;;7.70;96.80;;;;;;5034169;28;20140;-45
2022/01/16 09:41:06;;;;;;;21.67;14.77;;;7.70;96.60;;;;;;5035727;28;20119;-46
2022/01/16 09:43:33;;;;;;;21.52;15.25;;;7.70;96.70;;;;;;5035442;28;20042;-45
2022/01/16 09:46:00;;;;;;;20.65;15.07;;;7.80;96.70;;;;;;5035552;28;20041;-44
2022/01/16 09:48:27;;;;;;;20.20;14.07;;;7.80;96.60;;;;;;5034402;28;20044;-46
2022/01/16 09:50:54;;;;;;;20.45;13.20;;;7.80;96.60;;;;;;5035366;28;20041;-48
2022/01/16 09:53:20;;;;;;;17.52;12.85;;;7.80;96.40;;;;;;5035422;28;20393;-46
2022/01/16 09:55:47;;;;;;;18.50;12.95;;;7.80;96.50;;;;;;5035166;28;20083;-45
2022/01/16 09:58:14;;;;;;;20.73;13.32;;;7.80;96.50;;;;;;5035271;28;20060;-43
2022/01/16 10:00:41;;;;;;;15.82;12.40;;;7.80;96.40;;;;;;5034032;28;20499;-46
2022/01/16 10:03:09;;;;;;;17.90;12.75;;;7.80;96.50;;;;;;5035117;28;20049;-45
2022/01/16 10:05:36;;;;;;;19.30;12.27;;;7.80;96.50;;;;;;5033977;28;20037;-48
2022/01/16 10:08:02;;;;;;;19.05;12.50;;;7.70;96.40;;;;;;5035186;28;20477;-45
2022/01/16 10:10:29;;;;;;;32.88;18.98;;;7.80;96.60;;;;;;5033597;28;20037;-49
2022/01/16 10:13:04;;;;;;;23.55;13.30;;;7.70;96.60;;;;;;5028595;28;20042;-45
2022/01/16 10:15:31;;;;;;;18.63;13.10;;;7.80;96.50;;;;;;5034988;28;20052;-47
2022/01/16 10:17:57;;;;;;;20.10;13.52;;;7.90;96.70;;;;;;5033492;28;20048;-44
2022/01/16 10:20:24;;;;;;;20.92;14.02;;;7.90;96.40;;;;;;5033740;28;20046;-46
2022/01/16 10:22:51;;;;;;;20.27;13.60;;;7.80;96.30;;;;;;5017124;28;20041;-45
2022/01/16 10:25:18;;;;;;;21.20;14.30;;;7.80;96.40;;;;;;5034682;28;20048;-47
2022/01/16 10:27:45;;;;;;;22.10;15.07;;;7.90;96.50;;;;;;5034570;28;20037;-47
2022/01/16 10:30:14;;;;;;;22.65;14.38;;;8.00;96.30;;;;;;5034534;28;20041;-43
2022/01/16 10:32:41;;;;;;;22.23;14.57;;;7.90;96.20;;;;;;5037054;28;20063;-44
2022/01/16 10:35:07;;;;;;;20.10;13.48;;;8.00;96.30;;;;;;5034644;28;20404;-45
2022/01/16 10:37:34;;;;;;;22.17;14.18;;;8.00;96.20;;;;;;5040214;28;20044;-46
2022/01/16 10:40:02;;;;;;;19.58;14.02;;;8.10;96.10;;;;;;5034635;28;20065;-48
2022/01/16 10:42:29;;;;;;;20.67;13.07;;;8.00;95.90;;;;;;5033306;28;20179;-47
2022/01/16 10:44:56;;;;;;;18.30;13.57;;;8.00;96.00;;;;;;5034237;28;20029;-44
2022/01/16 10:47:23;;;;;;;20.55;13.70;;;8.00;95.90;;;;;;5034109;28;20037;-45
2022/01/16 10:49:50;;;;;;;22.05;13.65;;;8.10;95.80;;;;;;5034040;28;20041;-47
2022/01/16 10:52:17;;;;;;;20.13;13.25;;;8.10;95.70;;;;;;5034353;28;20119;-50
2022/01/16 10:54:44;;;;;;;19.92;13.98;;;8.10;95.90;;;;;;5034266;28;20069;-47
2022/01/16 10:57:11;;;;;;;19.23;12.77;;;8.20;95.50;;;;;;5034183;28;20049;-49
2022/01/16 10:59:38;;;;;;;21.75;14.23;;;8.20;95.50;;;;;;5034097;28;20033;-49
2022/01/16 11:02:04;;;;;;;16.83;12.82;;;8.20;95.50;;;;;;5033098;28;20408;-45
2022/01/16 11:04:32;;;;;;;20.25;12.88;;;8.20;95.40;;;;;;5026206;28;20058;-51
2022/01/16 11:06:58;;;;;;;24.25;14.85;;;8.20;95.50;;;;;;5029641;28;20477;-49
2022/01/16 11:09:25;;;;;;;20.48;13.90;;;8.20;95.40;;;;;;5027388;28;20040;-46
2022/01/16 11:11:52;;;;;;;17.52;12.90;;;8.20;95.30;;;;;;5033998;28;20038;-50
2022/01/16 11:14:19;;;;;;;17.85;12.80;;;8.20;95.40;;;;;;5033724;28;20127;-46
2022/01/16 11:16:45;;;;;;;18.90;13.77;;;8.20;95.50;;;;;;5033708;28;20054;-46
2022/01/16 11:19:14;;;;;;;19.63;13.32;;;8.20;95.10;;;;;;5033672;28;20049;-48
2022/01/16 11:21:43;;;;;;;18.92;13.73;;;8.10;95.30;;;;;;5032591;28;20446;-48
2022/01/16 11:26:50;;;;;;;23.17;14.27;;;7.90;95.50;;;;;;5030680;28;20060;-47
2022/01/16 11:29:17;;;;;;;23.38;14.68;;;7.90;95.40;;;;;;5033597;28;20446;-44
2022/01/16 11:31:44;;;;;;;20.60;14.95;;;7.90;95.70;;;;;;5033493;28;20037;-48
2022/01/16 11:34:11;;;;;;;19.10;13.80;;;8.00;95.30;;;;;;5033400;28;20068;-51
2022/01/16 11:36:38;;;;;;;22.90;14.73;;;8.00;95.50;;;;;;5033433;28;20049;-45
2022/01/16 11:39:04;;;;;;;22.40;15.77;;;8.00;95.60;;;;;;5033417;28;20041;-48
2022/01/16 11:41:33;;;;;;;22.75;15.63;;;8.10;95.40;;;;;;5032005;28;20042;-48
2022/01/16 11:44:00;;;;;;;23.77;15.70;;;8.10;95.40;;;;;;5033528;28;20065;-50
2022/01/16 11:46:29;;;;;;;20.95;14.93;;;8.10;95.20;;;;;;5033363;28;20046;-45
2022/01/16 11:48:56;;;;;;;22.35;15.65;;;8.10;95.20;;;;;;5038103;28;20052;-49
2022/01/16 11:51:26;;;;;;;20.50;15.00;;;8.20;95.20;;;;;;5033131;28;20037;-47
2022/01/16 11:53:53;;;;;;;20.73;14.90;;;8.30;94.90;;;;;;5033087;28;20038;-46
2022/01/16 11:56:20;;;;;;;21.63;14.48;;;8.30;95.00;;;;;;5033183;28;20273;-48
2022/01/16 11:58:46;;;;;;;27.02;14.70;;;8.40;94.60;;;;;;5033208;28;20559;-48
2022/01/16 12:01:13;;;;;;;20.52;15.15;;;8.50;94.40;;;;;;5031925;28;20045;-46
2022/01/16 12:03:40;;;;;;;22.27;15.60;;;8.50;94.40;;;;;;5032784;28;20104;-47
2022/01/16 12:06:07;;;;;;;19.88;14.25;;;8.60;94.40;;;;;;5032800;28;20045;-50
2022/01/16 12:08:34;;;;;;;20.27;14.10;;;8.60;94.00;;;;;;5032912;28;20430;-46
2022/01/16 12:11:01;;;;;;;22.08;15.55;;;8.60;93.90;;;;;;5031115;28;20073;-51
2022/01/16 12:13:28;;;;;;;22.08;14.77;;;8.60;93.90;;;;;;5032950;28;20515;-47
2022/01/16 12:15:55;;;;;;;21.90;14.75;;;8.60;93.90;;;;;;5032787;28;20129;-50
2022/01/16 12:18:21;;;;;;;21.50;14.85;;;8.50;93.70;;;;;;5034419;28;20045;-47
2022/01/16 12:20:53;;;;;;;19.30;14.68;;;8.40;94.00;;;;;;5032812;28;20041;-49
2022/01/16 12:23:20;;;;;;;20.33;14.70;;;8.40;94.20;;;;;;5032681;28;20519;-44
2022/01/16 12:25:49;;;;;;;18.58;14.50;;;8.40;94.10;;;;;;5031559;28;20508;-48
2022/01/16 12:28:16;;;;;;;21.42;14.98;;;8.40;94.10;;;;;;5037144;28;20038;-51
2022/01/16 12:30:42;;;;;;;21.17;15.00;;;8.50;94.00;;;;;;5032615;28;20037;-44
2022/01/16 12:33:09;;;;;;;22.20;15.35;;;8.60;94.20;;;;;;5032764;28;20052;-45
2022/01/16 12:35:36;;;;;;;20.02;14.38;;;8.50;93.90;;;;;;5032541;28;20133;-45
2022/01/16 12:38:03;;;;;;;18.95;13.93;;;8.50;94.10;;;;;;5032558;28;20064;-47
2022/01/16 12:40:30;;;;;;;21.70;13.85;;;8.50;93.60;;;;;;5032726;28;20058;-48
2022/01/16 12:42:57;;;;;;;18.50;14.00;;;8.50;93.90;;;;;;5032569;28;20041;-46
2022/01/16 12:45:24;;;;;;;17.08;13.50;;;8.50;93.70;;;;;;5032624;28;20034;-43
2022/01/16 12:47:51;;;;;;;18.63;14.25;;;8.40;93.90;;;;;;5035946;28;20037;-46
2022/01/16 12:50:17;;;;;;;18.85;14.50;;;8.50;94.20;;;;;;5031408;28;20080;-45
2022/01/16 12:52:44;;;;;;;18.52;14.20;;;8.40;93.90;;;;;;5032748;28;20034;-50
2022/01/16 12:55:11;;;;;;;19.98;14.82;;;8.40;94.00;;;;;;5032899;28;20069;-50
2022/01/16 12:57:38;;;;;;;20.10;14.57;;;8.40;94.10;;;;;;5032803;28;20120;-45
2022/01/16 13:00:05;;;;;;;20.02;15.45;;;8.40;94.10;;;;;;5032571;28;20078;-46
2022/01/16 13:02:31;;;;;;;19.38;14.15;;;8.40;94.00;;;;;;5032445;28;20045;-47
2022/01/16 13:04:58;;;;;;;20.15;14.85;;;8.40;94.10;;;;;;5032129;28;20123;-49
2022/01/16 13:07:45;;;;;;;20.42;14.88;;;8.40;94.00;;;;;;5032553;28;20088;-44
2022/01/16 13:10:12;;;;;;;18.73;14.38;;;8.30;94.00;;;;;;5032488;28;20346;-45
2022/01/16 13:12:39;;;;;;;19.10;14.85;;;8.30;94.00;;;;;;5032345;28;20042;-46
2022/01/16 13:15:05;;;;;;;20.55;14.65;;;8.20;94.30;;;;;;5032386;28;20092;-49
2022/01/16 13:17:32;;;;;;;17.75;14.88;;;8.20;94.10;;;;;;5032261;28;20501;-46
2022/01/16 13:20:01;;;;;;;16.67;14.07;;;8.20;94.10;;;;;;5031010;28;20128;-47
2022/01/16 13:22:29;;;;;;;19.33;15.55;;;8.20;94.10;;;;;;5032188;28;20080;-46